sensor_id;sensor_type;location;lat;lon;timestamp;pressure;altitude;pressure_sealevel;temperature;humidity
6208;BME280;3137;51.550;7.060;2023-02-19T00:01:34;101313.63;;;9.56;93.01
6208;BME280;3137;51.550;7.060;2023-02-19T00:04:06;101303.69;;;9.58;92.58
6208;BME280;3137;51.550;7.060;2023-02-19T00:06:34;101312.31;;;9.63;93.02
6208;BME280;3137;51.550;7.060;2023-02-19T00:09:00;101313.16;;;9.64;92.95
6208;BME280;3137;51.550;7.060;2023-02-19T00:11:29;101315.91;;;9.62;92.46
6208;BME280;3137;51.550;7.060;2023-02-19T00:13:57;101319.47;;;9.63;92.52
6208;BME280;3137;51.550;7.060;2023-02-19T00:16:33;101313.16;;;9.64;92.49
6208;BME280;3137;51.550;7.060;2023-02-19T00:19:03;101321.25;;;9.62;92.57
6208;BME280;3137;51.550;7.060;2023-02-19T00:21:29;101316.69;;;9.64;92.70
6208;BME280;3137;51.550;7.060;2023-02-19T00:23:58;101307.03;;;9.62;92.85
6208;BME280;3137;51.550;7.060;2023-02-19T00:26:25;101305.22;;;9.62;92.69
6208;BME280;3137;51.550;7.060;2023-02-19T00:28:53;101306.84;;;9.65;92.66
6208;BME280;3137;51.550;7.060;2023-02-19T00:31:22;101306.97;;;9.63;92.58
6208;BME280;3137;51.550;7.060;2023-02-19T00:33:51;101304.88;;;9.68;92.29
6208;BME280;3137;51.550;7.060;2023-02-19T00:36:18;101305.06;;;9.65;92.33
6208;BME280;3137;51.550;7.060;2023-02-19T00:38:45;101298.81;;;9.65;92.28
6208;BME280;3137;51.550;7.060;2023-02-19T00:41:13;101303.31;;;9.64;92.30
6208;BME280;3137;51.550;7.060;2023-02-19T00:44:06;101281.84;;;9.66;92.27
6208;BME280;3137;51.550;7.060;2023-02-19T00:46:38;101288.13;;;9.65;92.39
6208;BME280;3137;51.550;7.060;2023-02-19T00:49:08;101286.75;;;9.57;92.44
6208;BME280;3137;51.550;7.060;2023-02-19T00:51:38;101284.78;;;9.61;92.69
6208;BME280;3137;51.550;7.060;2023-02-19T00:54:05;101292.81;;;9.61;92.50
6208;BME280;3137;51.550;7.060;2023-02-19T00:56:31;101288.31;;;9.62;92.48
6208;BME280;3137;51.550;7.060;2023-02-19T00:58:58;101288.59;;;9.57;92.88
6208;BME280;3137;51.550;7.060;2023-02-19T01:01:25;101290.13;;;9.61;92.91
6208;BME280;3137;51.550;7.060;2023-02-19T01:03:51;101291.38;;;9.55;92.76
6208;BME280;3137;51.550;7.060;2023-02-19T01:06:19;101291.25;;;9.57;93.01
6208;BME280;3137;51.550;7.060;2023-02-19T01:08:46;101280.69;;;9.55;93.00
6208;BME280;3137;51.550;7.060;2023-02-19T01:11:13;101275.41;;;9.54;92.92
6208;BME280;3137;51.550;7.060;2023-02-19T01:13:40;101278.94;;;9.54;92.93
6208;BME280;3137;51.550;7.060;2023-02-19T01:16:12;101283.25;;;9.57;92.71
6208;BME280;3137;51.550;7.060;2023-02-19T01:18:40;101287.47;;;9.61;92.52
6208;BME280;3137;51.550;7.060;2023-02-19T01:21:15;101287.47;;;9.61;92.71
6208;BME280;3137;51.550;7.060;2023-02-19T01:23:42;101286.41;;;9.64;93.03
6208;BME280;3137;51.550;7.060;2023-02-19T01:26:14;101284.59;;;9.64;92.59
6208;BME280;3137;51.550;7.060;2023-02-19T01:28:42;101281.84;;;9.66;92.73
6208;BME280;3137;51.550;7.060;2023-02-19T01:31:12;101279.53;;;9.59;92.76
6208;BME280;3137;51.550;7.060;2023-02-19T01:33:43;101285.66;;;9.62;92.71
6208;BME280;3137;51.550;7.060;2023-02-19T01:36:10;101287.53;;;9.59;92.46
6208;BME280;3137;51.550;7.060;2023-02-19T01:38:37;101281.16;;;9.62;92.42
6208;BME280;3137;51.550;7.060;2023-02-19T01:41:05;101282.97;;;9.62;92.27
6208;BME280;3137;51.550;7.060;2023-02-19T01:44:02;101273.41;;;9.57;92.76
6208;BME280;3137;51.550;7.060;2023-02-19T01:46:40;101280.75;;;9.54;92.66
6208;BME280;3137;51.550;7.060;2023-02-19T01:49:18;101269.97;;;9.55;92.75
6208;BME280;3137;51.550;7.060;2023-02-19T01:51:58;101280.81;;;9.52;92.94
6208;BME280;3137;51.550;7.060;2023-02-19T01:54:28;101287.91;;;9.53;92.64
6208;BME280;3137;51.550;7.060;2023-02-19T01:56:56;101288.06;;;9.50;93.00
6208;BME280;3137;51.550;7.060;2023-02-19T01:59:24;101287.41;;;9.47;93.16
6208;BME280;3137;51.550;7.060;2023-02-19T02:01:51;101287.47;;;9.45;92.99
6208;BME280;3137;51.550;7.060;2023-02-19T02:04:17;101277.84;;;9.43;93.08
6208;BME280;3137;51.550;7.060;2023-02-19T02:09:18;101291.13;;;9.44;92.83
6208;BME280;3137;51.550;7.060;2023-02-19T02:12:04;101291.13;;;9.44;93.12
6208;BME280;3137;51.550;7.060;2023-02-19T02:14:33;101291.19;;;9.43;92.89
6208;BME280;3137;51.550;7.060;2023-02-19T02:17:19;101293.22;;;9.39;92.90
6208;BME280;3137;51.550;7.060;2023-02-19T02:20:21;101299.41;;;9.40;92.97
6208;BME280;3137;51.550;7.060;2023-02-19T02:23:07;101303.78;;;9.41;92.63
6208;BME280;3137;51.550;7.060;2023-02-19T02:31:34;101295.97;;;9.37;92.46
6208;BME280;3137;51.550;7.060;2023-02-19T02:34:07;101291.56;;;9.36;92.28
6208;BME280;3137;51.550;7.060;2023-02-19T02:36:41;101295.28;;;9.34;92.34
6208;BME280;3137;51.550;7.060;2023-02-19T02:39:14;101297.97;;;9.34;92.48
6208;BME280;3137;51.550;7.060;2023-02-19T02:41:44;101298.13;;;9.31;92.00
6208;BME280;3137;51.550;7.060;2023-02-19T02:44:12;101294.78;;;9.27;92.66
6208;BME280;3137;51.550;7.060;2023-02-19T02:46:40;101294.59;;;9.30;92.33
6208;BME280;3137;51.550;7.060;2023-02-19T02:49:15;101299.94;;;9.30;91.84
6208;BME280;3137;51.550;7.060;2023-02-19T02:51:46;101296.41;;;9.30;92.28
6208;BME280;3137;51.550;7.060;2023-02-19T02:54:22;101305.03;;;9.35;92.10
6208;BME280;3137;51.550;7.060;2023-02-19T02:57:12;101303.38;;;9.32;92.20
6208;BME280;3137;51.550;7.060;2023-02-19T02:59:47;101306.06;;;9.32;91.85
6208;BME280;3137;51.550;7.060;2023-02-19T03:02:19;101309.00;;;9.28;91.94
6208;BME280;3137;51.550;7.060;2023-02-19T03:04:52;101296.41;;;9.30;92.19
6208;BME280;3137;51.550;7.060;2023-02-19T03:07:45;101303.38;;;9.32;91.08
6208;BME280;3137;51.550;7.060;2023-02-19T03:10:16;101309.50;;;9.34;90.75
6208;BME280;3137;51.550;7.060;2023-02-19T03:12:45;101304.06;;;9.36;90.83
6208;BME280;3137;51.550;7.060;2023-02-19T03:15:40;101304.25;;;9.33;90.85
6208;BME280;3137;51.550;7.060;2023-02-19T03:18:30;101309.41;;;9.36;90.50
6208;BME280;3137;51.550;7.060;2023-02-19T03:21:19;101301.69;;;9.31;90.32
6208;BME280;3137;51.550;7.060;2023-02-19T03:23:47;101313.28;;;9.30;90.86
6208;BME280;3137;51.550;7.060;2023-02-19T03:26:34;101315.97;;;9.30;90.76
6208;BME280;3137;51.550;7.060;2023-02-19T03:29:04;101320.72;;;9.25;90.86
6208;BME280;3137;51.550;7.060;2023-02-19T03:32:01;101329.53;;;9.27;90.17
6208;BME280;3137;51.550;7.060;2023-02-19T03:34:35;101326.72;;;9.29;90.29
6208;BME280;3137;51.550;7.060;2023-02-19T03:37:15;101324.84;;;9.31;89.28
6208;BME280;3137;51.550;7.060;2023-02-19T03:39:44;101331.16;;;9.30;89.47
6208;BME280;3137;51.550;7.060;2023-02-19T03:42:22;101336.44;;;9.31;89.02
6208;BME280;3137;51.550;7.060;2023-02-19T03:45:17;101341.84;;;9.30;88.88
6208;BME280;3137;51.550;7.060;2023-02-19T03:54:15;101355.03;;;9.17;90.38
6208;BME280;3137;51.550;7.060;2023-02-19T03:56:51;101357.88;;;9.14;90.80
6208;BME280;3137;51.550;7.060;2023-02-19T04:02:15;101359.94;;;9.09;90.72
6208;BME280;3137;51.550;7.060;2023-02-19T04:04:48;101362.00;;;9.04;91.04
6208;BME280;3137;51.550;7.060;2023-02-19T04:07:17;101368.44;;;9.00;91.57
6208;BME280;3137;51.550;7.060;2023-02-19T04:09:46;101367.00;;;8.94;91.72
6208;BME280;3137;51.550;7.060;2023-02-19T04:12:18;101382.31;;;8.90;91.57
6208;BME280;3137;51.550;7.060;2023-02-19T04:14:57;101372.50;;;8.91;91.56
6208;BME280;3137;51.550;7.060;2023-02-19T04:17:30;101396.63;;;8.89;91.63
6208;BME280;3137;51.550;7.060;2023-02-19T04:20:01;101391.03;;;8.94;91.22
6208;BME280;3137;51.550;7.060;2023-02-19T04:22:29;101388.28;;;8.96;90.98
6208;BME280;3137;51.550;7.060;2023-02-19T04:24:56;101395.41;;;8.95;91.07
6208;BME280;3137;51.550;7.060;2023-02-19T04:27:22;101395.41;;;8.95;90.96
6208;BME280;3137;51.550;7.060;2023-02-19T04:29:49;101390.97;;;8.96;91.02
6208;BME280;3137;51.550;7.060;2023-02-19T04:32:15;101403.53;;;8.93;91.04
6208;BME280;3137;51.550;7.060;2023-02-19T04:34:41;101407.91;;;8.94;90.86
6208;BME280;3137;51.550;7.060;2023-02-19T04:37:08;101408.78;;;8.95;91.00
6208;BME280;3137;51.550;7.060;2023-02-19T04:39:34;101407.91;;;8.94;90.92
6208;BME280;3137;51.550;7.060;2023-02-19T04:42:01;101412.34;;;8.96;90.90
6208;BME280;3137;51.550;7.060;2023-02-19T04:44:27;101413.50;;;8.90;91.37
6208;BME280;3137;51.550;7.060;2023-02-19T04:46:54;101414.72;;;8.84;91.73
6208;BME280;3137;51.550;7.060;2023-02-19T04:49:20;101420.84;;;8.86;91.91
6208;BME280;3137;51.550;7.060;2023-02-19T04:51:47;101420.97;;;8.83;91.91
6208;BME280;3137;51.550;7.060;2023-02-19T04:54:13;101418.47;;;8.80;91.82
6208;BME280;3137;51.550;7.060;2023-02-19T04:56:39;101431.66;;;8.83;91.57
6208;BME280;3137;51.550;7.060;2023-02-19T04:59:06;101424.78;;;8.79;92.04
6208;BME280;3137;51.550;7.060;2023-02-19T05:01:32;101421.31;;;8.77;92.00
6208;BME280;3137;51.550;7.060;2023-02-19T05:03:58;101426.66;;;8.77;91.93
6208;BME280;3137;51.550;7.060;2023-02-19T05:06:25;101427.53;;;8.78;91.82
6208;BME280;3137;51.550;7.060;2023-02-19T05:08:52;101435.78;;;8.73;91.81
6208;BME280;3137;51.550;7.060;2023-02-19T05:11:18;101440.09;;;8.76;91.53
6208;BME280;3137;51.550;7.060;2023-02-19T05:13:45;101438.19;;;8.78;91.66
6208;BME280;3137;51.550;7.060;2023-02-19T05:16:13;101440.88;;;8.78;91.54
6208;BME280;3137;51.550;7.060;2023-02-19T05:18:42;101450.78;;;8.76;91.86
6208;BME280;3137;51.550;7.060;2023-02-19T05:21:10;101463.25;;;8.75;91.70
6208;BME280;3137;51.550;7.060;2023-02-19T05:23:37;101459.81;;;8.73;91.65
6208;BME280;3137;51.550;7.060;2023-02-19T05:26:12;101453.59;;;8.72;91.78
6208;BME280;3137;51.550;7.060;2023-02-19T05:28:40;101458.78;;;8.76;91.55
6208;BME280;3137;51.550;7.060;2023-02-19T05:31:07;101471.44;;;8.72;91.52
6208;BME280;3137;51.550;7.060;2023-02-19T05:33:35;101466.09;;;8.72;91.79
6208;BME280;3137;51.550;7.060;2023-02-19T05:36:06;101474.00;;;8.73;91.47
6208;BME280;3137;51.550;7.060;2023-02-19T05:38:33;101471.69;;;8.67;92.04
6208;BME280;3137;51.550;7.060;2023-02-19T05:41:10;101477.09;;;8.66;92.36
6208;BME280;3137;51.550;7.060;2023-02-19T05:43:39;101478.84;;;8.67;92.07
6208;BME280;3137;51.550;7.060;2023-02-19T05:46:06;101477.88;;;8.68;91.93
6208;BME280;3137;51.550;7.060;2023-02-19T05:48:33;101487.53;;;8.70;91.96
6208;BME280;3137;51.550;7.060;2023-02-19T05:51:04;101492.09;;;8.68;91.92
6208;BME280;3137;51.550;7.060;2023-02-19T05:53:31;101485.88;;;8.68;92.07
6208;BME280;3137;51.550;7.060;2023-02-19T05:55:58;101493.28;;;8.63;92.28
6208;BME280;3137;51.550;7.060;2023-02-19T05:58:26;101495.09;;;8.62;92.34
6208;BME280;3137;51.550;7.060;2023-02-19T06:00:53;101488.09;;;8.60;92.35
6208;BME280;3137;51.550;7.060;2023-02-19T06:03:20;101499.53;;;8.62;91.98
6208;BME280;3137;51.550;7.060;2023-02-19T06:05:46;101495.22;;;8.59;92.40
6208;BME280;3137;51.550;7.060;2023-02-19T06:08:14;101494.13;;;8.63;92.04
6208;BME280;3137;51.550;7.060;2023-02-19T06:10:41;101493.34;;;8.61;92.35
6208;BME280;3137;51.550;7.060;2023-02-19T06:13:08;101496.97;;;8.60;92.16
6208;BME280;3137;51.550;7.060;2023-02-19T06:15:35;101496.00;;;8.61;91.99
6208;BME280;3137;51.550;7.060;2023-02-19T06:18:02;101503.16;;;8.61;92.01
6208;BME280;3137;51.550;7.060;2023-02-19T06:20:29;101502.22;;;8.62;91.59
6208;BME280;3137;51.550;7.060;2023-02-19T06:22:55;101510.31;;;8.60;92.32
6208;BME280;3137;51.550;7.060;2023-02-19T06:25:21;101510.22;;;8.62;91.83
6208;BME280;3137;51.550;7.060;2023-02-19T06:27:48;101520.84;;;8.63;91.88
6208;BME280;3137;51.550;7.060;2023-02-19T06:30:14;101521.00;;;8.60;92.35
6208;BME280;3137;51.550;7.060;2023-02-19T06:32:40;101528.44;;;8.54;92.44
6208;BME280;3137;51.550;7.060;2023-02-19T06:35:07;101522.03;;;8.58;92.76
6208;BME280;3137;51.550;7.060;2023-02-19T06:37:33;101530.34;;;8.51;92.67
6208;BME280;3137;51.550;7.060;2023-02-19T06:39:59;101539.13;;;8.54;92.91
6208;BME280;3137;51.550;7.060;2023-02-19T06:42:26;101529.53;;;8.49;92.61
6208;BME280;3137;51.550;7.060;2023-02-19T06:44:52;101537.41;;;8.52;92.61
6208;BME280;3137;51.550;7.060;2023-02-19T06:47:19;101538.19;;;8.55;92.52
6208;BME280;3137;51.550;7.060;2023-02-19T06:49:45;101542.59;;;8.56;92.23
6208;BME280;3137;51.550;7.060;2023-02-19T06:52:11;101550.59;;;8.56;91.74
6208;BME280;3137;51.550;7.060;2023-02-19T06:54:38;101549.59;;;8.58;91.87
6208;BME280;3137;51.550;7.060;2023-02-19T06:57:04;101557.75;;;8.55;92.47
6208;BME280;3137;51.550;7.060;2023-02-19T06:59:30;101566.47;;;8.59;91.85
6208;BME280;3137;51.550;7.060;2023-02-19T07:01:57;101567.41;;;8.58;92.01
6208;BME280;3137;51.550;7.060;2023-02-19T07:04:23;101573.78;;;8.55;91.77
6208;BME280;3137;51.550;7.060;2023-02-19T07:06:49;101583.56;;;8.55;92.31
6208;BME280;3137;51.550;7.060;2023-02-19T07:09:16;101582.81;;;8.52;92.38
6208;BME280;3137;51.550;7.060;2023-02-19T07:11:42;101591.72;;;8.51;93.16
6208;BME280;3137;51.550;7.060;2023-02-19T07:14:13;101591.88;;;8.48;92.65
6208;BME280;3137;51.550;7.060;2023-02-19T07:16:40;101596.44;;;8.46;92.82
6208;BME280;3137;51.550;7.060;2023-02-19T07:19:08;101602.56;;;8.48;92.46
6208;BME280;3137;51.550;7.060;2023-02-19T07:21:35;101599.91;;;8.48;92.99
6208;BME280;3137;51.550;7.060;2023-02-19T07:24:03;101612.38;;;8.48;93.27
6208;BME280;3137;51.550;7.060;2023-02-19T07:26:30;101610.56;;;8.48;92.45
6208;BME280;3137;51.550;7.060;2023-02-19T07:28:57;101613.19;;;8.50;92.90
6208;BME280;3137;51.550;7.060;2023-02-19T07:31:23;101628.31;;;8.49;93.33
6208;BME280;3137;51.550;7.060;2023-02-19T07:33:50;101629.19;;;8.50;92.91
6208;BME280;3137;51.550;7.060;2023-02-19T07:36:17;101625.66;;;8.49;93.26
6208;BME280;3137;51.550;7.060;2023-02-19T07:38:44;101622.19;;;8.47;93.01
6208;BME280;3137;51.550;7.060;2023-02-19T07:41:11;101635.31;;;8.52;93.01
6208;BME280;3137;51.550;7.060;2023-02-19T07:43:39;101639.88;;;8.50;92.97
6208;BME280;3137;51.550;7.060;2023-02-19T07:46:08;101646.94;;;8.51;93.28
6208;BME280;3137;51.550;7.060;2023-02-19T07:48:36;101640.59;;;8.54;92.46
6208;BME280;3137;51.550;7.060;2023-02-19T07:51:04;101646.06;;;8.50;93.06
6208;BME280;3137;51.550;7.060;2023-02-19T07:53:32;101645.06;;;8.53;92.68
6208;BME280;3137;51.550;7.060;2023-02-19T07:56:00;101655.00;;;8.49;92.47
6208;BME280;3137;51.550;7.060;2023-02-19T07:58:27;101665.78;;;8.48;93.00
6208;BME280;3137;51.550;7.060;2023-02-19T08:00:54;101669.31;;;8.48;92.51
6208;BME280;3137;51.550;7.060;2023-02-19T08:03:20;101678.81;;;8.54;92.32
6208;BME280;3137;51.550;7.060;2023-02-19T08:05:47;101683.28;;;8.54;92.05
6208;BME280;3137;51.550;7.060;2023-02-19T08:08:15;101685.16;;;8.51;92.08
6208;BME280;3137;51.550;7.060;2023-02-19T08:10:42;101693.97;;;8.54;92.22
6208;BME280;3137;51.550;7.060;2023-02-19T08:13:29;101705.28;;;8.59;91.72
6208;BME280;3137;51.550;7.060;2023-02-19T08:18:46;101699.03;;;8.60;91.25
6208;BME280;3137;51.550;7.060;2023-02-19T08:21:12;101693.81;;;8.57;91.01
6208;BME280;3137;51.550;7.060;2023-02-19T08:23:39;101698.16;;;8.59;91.27
6208;BME280;3137;51.550;7.060;2023-02-19T08:26:05;101690.94;;;8.61;90.97
6208;BME280;3137;51.550;7.060;2023-02-19T08:28:32;101699.97;;;8.59;90.93
6208;BME280;3137;51.550;7.060;2023-02-19T08:31:00;101697.13;;;8.62;90.62
6208;BME280;3137;51.550;7.060;2023-02-19T08:33:28;101700.47;;;8.67;90.68
6208;BME280;3137;51.550;7.060;2023-02-19T08:35:55;101698.50;;;8.70;90.99
6208;BME280;3137;51.550;7.060;2023-02-19T08:38:22;101698.44;;;8.72;90.89
6208;BME280;3137;51.550;7.060;2023-02-19T08:40:48;101698.44;;;8.72;91.11
6208;BME280;3137;51.550;7.060;2023-02-19T08:43:16;101691.94;;;8.78;91.05
6208;BME280;3137;51.550;7.060;2023-02-19T08:45:44;101696.81;;;8.87;90.92
6208;BME280;3137;51.550;7.060;2023-02-19T08:48:10;101702.63;;;8.95;90.61
6208;BME280;3137;51.550;7.060;2023-02-19T08:50:37;101704.47;;;8.94;90.94
6208;BME280;3137;51.550;7.060;2023-02-19T08:53:05;101712.69;;;8.90;90.51
6208;BME280;3137;51.550;7.060;2023-02-19T08:55:32;101714.66;;;8.86;89.99
6208;BME280;3137;51.550;7.060;2023-02-19T08:57:58;101726.28;;;8.85;90.68
6208;BME280;3137;51.550;7.060;2023-02-19T09:00:25;101725.34;;;8.86;90.90
6208;BME280;3137;51.550;7.060;2023-02-19T09:02:52;101727.13;;;8.86;90.41
6208;BME280;3137;51.550;7.060;2023-02-19T09:05:18;101732.72;;;8.81;90.66
6208;BME280;3137;51.550;7.060;2023-02-19T09:07:45;101743.88;;;8.89;90.36
6208;BME280;3137;51.550;7.060;2023-02-19T09:10:12;101744.84;;;8.88;90.44
6208;BME280;3137;51.550;7.060;2023-02-19T09:12:39;101754.56;;;8.89;89.53
6208;BME280;3137;51.550;7.060;2023-02-19T09:15:06;101752.59;;;8.93;89.84
6208;BME280;3137;51.550;7.060;2023-02-19T09:17:33;101750.88;;;8.92;89.67
6208;BME280;3137;51.550;7.060;2023-02-19T09:19:59;101752.59;;;8.93;90.04
6208;BME280;3137;51.550;7.060;2023-02-19T09:22:26;101755.44;;;8.90;89.51
6208;BME280;3137;51.550;7.060;2023-02-19T09:24:52;101761.50;;;8.93;89.39
6208;BME280;3137;51.550;7.060;2023-02-19T09:27:19;101764.09;;;8.95;89.11
6208;BME280;3137;51.550;7.060;2023-02-19T09:29:46;101768.34;;;8.99;89.01
6208;BME280;3137;51.550;7.060;2023-02-19T09:32:12;101768.19;;;9.02;88.79
6208;BME280;3137;51.550;7.060;2023-02-19T09:34:39;101766.84;;;9.12;88.88
6208;BME280;3137;51.550;7.060;2023-02-19T09:37:06;101772.03;;;9.15;88.63
6208;BME280;3137;51.550;7.060;2023-02-19T09:39:33;101772.09;;;9.14;89.20
6208;BME280;3137;51.550;7.060;2023-02-19T09:42:12;101769.94;;;9.03;89.19
6208;BME280;3137;51.550;7.060;2023-02-19T09:44:44;101784.59;;;8.94;89.59
6208;BME280;3137;51.550;7.060;2023-02-19T09:47:21;101787.50;;;8.90;89.75
6208;BME280;3137;51.550;7.060;2023-02-19T09:49:51;101798.34;;;8.87;90.43
6208;BME280;3137;51.550;7.060;2023-02-19T09:54:53;101795.28;;;8.76;90.83
6208;BME280;3137;51.550;7.060;2023-02-19T09:57:23;101809.66;;;8.73;91.10
6208;BME280;3137;51.550;7.060;2023-02-19T09:59:55;101813.06;;;8.77;91.22
6208;BME280;3137;51.550;7.060;2023-02-19T10:02:25;101823.66;;;8.78;90.73
6208;BME280;3137;51.550;7.060;2023-02-19T10:04:53;101828.00;;;8.81;89.70
6208;BME280;3137;51.550;7.060;2023-02-19T10:07:34;101833.78;;;8.90;90.58
6208;BME280;3137;51.550;7.060;2023-02-19T10:10:26;101846.56;;;9.03;90.28
6208;BME280;3137;51.550;7.060;2023-02-19T10:12:58;101858.63;;;9.11;90.50
6208;BME280;3137;51.550;7.060;2023-02-19T10:17:52;101848.66;;;9.15;89.51
6208;BME280;3137;51.550;7.060;2023-02-19T10:20:21;101847.66;;;9.18;89.47
6208;BME280;3137;51.550;7.060;2023-02-19T10:23:02;101856.03;;;9.10;89.03
6208;BME280;3137;51.550;7.060;2023-02-19T10:25:29;101857.69;;;9.12;89.42
6208;BME280;3137;51.550;7.060;2023-02-19T10:27:57;101871.69;;;9.18;88.80
6208;BME280;3137;51.550;7.060;2023-02-19T10:30:29;101887.81;;;9.16;88.35
6208;BME280;3137;51.550;7.060;2023-02-19T10:33:02;101884.47;;;9.11;87.49
6208;BME280;3137;51.550;7.060;2023-02-19T10:35:30;101885.94;;;9.18;87.81
6208;BME280;3137;51.550;7.060;2023-02-19T10:38:00;101893.78;;;9.21;87.88
6208;BME280;3137;51.550;7.060;2023-02-19T10:40:27;101894.31;;;9.29;87.37
6208;BME280;3137;51.550;7.060;2023-02-19T10:42:59;101884.63;;;9.27;87.35
6208;BME280;3137;51.550;7.060;2023-02-19T10:45:33;101882.38;;;9.36;88.11
6208;BME280;3137;51.550;7.060;2023-02-19T10:48:04;101885.28;;;9.32;87.33
6208;BME280;3137;51.550;7.060;2023-02-19T10:50:35;101882.59;;;9.51;87.48
6208;BME280;3137;51.550;7.060;2023-02-19T10:53:21;101886.50;;;9.80;87.42
6208;BME280;3137;51.550;7.060;2023-02-19T10:56:09;101888.16;;;10.00;86.16
6208;BME280;3137;51.550;7.060;2023-02-19T10:58:35;101917.81;;;9.95;85.60
6208;BME280;3137;51.550;7.060;2023-02-19T11:01:14;101913.72;;;9.88;84.95
6208;BME280;3137;51.550;7.060;2023-02-19T11:03:41;101908.53;;;9.85;86.32
6208;BME280;3137;51.550;7.060;2023-02-19T11:06:09;101908.56;;;9.66;85.23
6208;BME280;3137;51.550;7.060;2023-02-19T11:11:08;101927.50;;;9.62;85.17
6208;BME280;3137;51.550;7.060;2023-02-19T11:13:35;101919.50;;;9.62;85.51
6208;BME280;3137;51.550;7.060;2023-02-19T11:16:03;101916.00;;;9.59;84.40
6208;BME280;3137;51.550;7.060;2023-02-19T11:18:31;101915.78;;;9.64;85.24
6208;BME280;3137;51.550;7.060;2023-02-19T11:21:03;101917.22;;;9.71;85.91
6208;BME280;3137;51.550;7.060;2023-02-19T11:23:36;101911.50;;;9.79;84.81
6208;BME280;3137;51.550;7.060;2023-02-19T11:26:06;101903.25;;;9.84;84.93
6208;BME280;3137;51.550;7.060;2023-02-19T11:28:42;101911.44;;;9.80;83.60
6208;BME280;3137;51.550;7.060;2023-02-19T11:36:31;101909.16;;;9.90;83.20
6208;BME280;3137;51.550;7.060;2023-02-19T11:39:04;101903.81;;;9.90;82.52
6208;BME280;3137;51.550;7.060;2023-02-19T11:42:00;101900.69;;;9.99;83.03
6208;BME280;3137;51.550;7.060;2023-02-19T11:44:38;101888.09;;;10.01;83.32
6208;BME280;3137;51.550;7.060;2023-02-19T11:47:31;101888.63;;;9.91;81.90
6208;BME280;3137;51.550;7.060;2023-02-19T11:50:26;101888.56;;;9.92;81.57
6208;BME280;3137;51.550;7.060;2023-02-19T11:55:55;101889.56;;;9.90;83.12
6208;BME280;3137;51.550;7.060;2023-02-19T12:07:30;101900.44;;;9.87;82.06
6208;BME280;3137;51.550;7.060;2023-02-19T12:15:48;101906.97;;;9.98;81.24
6208;BME280;3137;51.550;7.060;2023-02-19T12:19:22;101912.56;;;10.11;82.34
6208;BME280;3137;51.550;7.060;2023-02-19T12:21:38;101914.00;;;10.01;80.63
6208;BME280;3137;51.550;7.060;2023-02-19T12:27:48;101903.97;;;9.87;82.25
6208;BME280;3137;51.550;7.060;2023-02-19T12:30:28;101915.81;;;9.82;81.67
6208;BME280;3137;51.550;7.060;2023-02-19T12:33:39;101928.56;;;9.76;81.54
6208;BME280;3137;51.550;7.060;2023-02-19T12:36:36;101915.81;;;9.82;81.09
6208;BME280;3137;51.550;7.060;2023-02-19T12:45:06;101932.47;;;9.69;79.03
6208;BME280;3137;51.550;7.060;2023-02-19T12:47:41;101931.63;;;9.69;78.51
6208;BME280;3137;51.550;7.060;2023-02-19T12:52:40;101937.13;;;9.66;78.47
6208;BME280;3137;51.550;7.060;2023-02-19T12:55:21;101943.78;;;9.57;81.58
6208;BME280;3137;51.550;7.060;2023-02-19T12:57:49;101945.38;;;9.42;82.75
6208;BME280;3137;51.550;7.060;2023-02-19T13:00:32;101946.56;;;9.36;83.80
6208;BME280;3137;51.550;7.060;2023-02-19T13:06:10;101940.25;;;9.37;83.76
6208;BME280;3137;51.550;7.060;2023-02-19T13:08:53;101939.44;;;9.35;83.33
6208;BME280;3137;51.550;7.060;2023-02-19T13:11:36;101942.06;;;9.37;84.35
6208;BME280;3137;51.550;7.060;2023-02-19T13:14:39;101947.03;;;9.45;84.91
6208;BME280;3137;51.550;7.060;2023-02-19T13:20:13;101952.44;;;9.62;83.27
6208;BME280;3137;51.550;7.060;2023-02-19T13:22:45;101944.34;;;9.64;84.22
6208;BME280;3137;51.550;7.060;2023-02-19T13:34:44;101978.88;;;9.11;85.48
6208;BME280;3137;51.550;7.060;2023-02-19T13:37:14;101980.03;;;9.06;85.81
6208;BME280;3137;51.550;7.060;2023-02-19T13:39:49;101977.72;;;8.98;86.16
6208;BME280;3137;51.550;7.060;2023-02-19T13:42:33;101982.09;;;8.99;86.92
6208;BME280;3137;51.550;7.060;2023-02-19T13:45:05;101982.06;;;9.01;86.94
6208;BME280;3137;51.550;7.060;2023-02-19T13:52:53;101987.59;;;8.96;87.51
6208;BME280;3137;51.550;7.060;2023-02-19T13:55:43;101981.25;;;8.99;87.38
6208;BME280;3137;51.550;7.060;2023-02-19T14:01:00;101998.41;;;8.93;87.34
6208;BME280;3137;51.550;7.060;2023-02-19T14:03:29;102004.53;;;8.95;87.55
6208;BME280;3137;51.550;7.060;2023-02-19T14:06:08;102007.56;;;8.87;87.25
6208;BME280;3137;51.550;7.060;2023-02-19T14:08:58;102013.06;;;8.84;87.43
6208;BME280;3137;51.550;7.060;2023-02-19T14:14:28;102010.91;;;8.72;87.15
6208;BME280;3137;51.550;7.060;2023-02-19T14:17:02;102022.81;;;8.65;87.57
6208;BME280;3137;51.550;7.060;2023-02-19T14:28:11;102040.25;;;8.51;88.95
6208;BME280;3137;51.550;7.060;2023-02-19T14:30:59;102041.25;;;8.49;89.16
6208;BME280;3137;51.550;7.060;2023-02-19T14:33:32;102036.06;;;8.46;89.13
6208;BME280;3137;51.550;7.060;2023-02-19T14:36:20;102035.38;;;8.41;89.32
6208;BME280;3137;51.550;7.060;2023-02-19T14:38:52;102027.06;;;8.48;89.80
6208;BME280;3137;51.550;7.060;2023-02-19T14:41:20;102035.13;;;8.47;89.54
6208;BME280;3137;51.550;7.060;2023-02-19T14:43:52;102027.25;;;8.44;89.68
6208;BME280;3137;51.550;7.060;2023-02-19T14:46:40;102033.78;;;8.35;89.53
6208;BME280;3137;51.550;7.060;2023-02-19T14:51:43;102024.47;;;8.23;90.36
6208;BME280;3137;51.550;7.060;2023-02-19T14:54:19;102030.25;;;8.35;90.59
6208;BME280;3137;51.550;7.060;2023-02-19T14:56:49;102027.44;;;8.38;91.06
6208;BME280;3137;51.550;7.060;2023-02-19T14:59:28;102031.94;;;8.37;90.89
6208;BME280;3137;51.550;7.060;2023-02-19T15:01:58;102016.56;;;8.44;90.38
6208;BME280;3137;51.550;7.060;2023-02-19T15:04:28;102020.22;;;8.41;90.50
6208;BME280;3137;51.550;7.060;2023-02-19T15:07:00;102010.28;;;8.45;90.48
6208;BME280;3137;51.550;7.060;2023-02-19T15:09:30;102013.75;;;8.47;90.33
6208;BME280;3137;51.550;7.060;2023-02-19T15:11:59;102009.91;;;8.54;90.69
6208;BME280;3137;51.550;7.060;2023-02-19T15:14:28;102008.88;;;8.57;90.36
6208;BME280;3137;51.550;7.060;2023-02-19T15:17:01;101991.94;;;8.58;90.58
6208;BME280;3137;51.550;7.060;2023-02-19T15:19:32;101992.19;;;8.51;90.30
6208;BME280;3137;51.550;7.060;2023-02-19T15:22:01;101977.81;;;8.56;90.40
6208;BME280;3137;51.550;7.060;2023-02-19T15:24:27;101967.13;;;8.56;89.74
6208;BME280;3137;51.550;7.060;2023-02-19T15:26:54;101957.31;;;8.56;89.86